createdAt,value
2017-01-08T00:00:41.173Z,89.593
2017-01-08T00:03:52.910Z,89.233
2017-01-08T00:06:58.040Z,89.253
2017-01-08T00:09:57.572Z,88.885
2017-01-08T00:13:09.260Z,88.970
2017-01-08T00:16:08.524Z,89.172
2017-01-08T00:19:14.122Z,89.315
2017-01-08T00:22:25.775Z,89.368
2017-01-08T00:25:31.054Z,89.425
2017-01-08T00:28:36.480Z,89.485
2017-01-08T00:31:41.707Z,89.280
2017-01-08T00:34:46.924Z,89.083
2017-01-08T00:37:46.223Z,89.084
2017-01-08T00:40:51.869Z,89.123
2017-01-08T00:43:57.308Z,89.006
2017-01-08T00:47:02.760Z,88.958
2017-01-08T00:50:08.202Z,88.816
2017-01-08T00:53:19.728Z,88.669
2017-01-08T00:56:19.015Z,88.418
2017-01-08T00:59:30.599Z,88.368
2017-01-08T01:02:35.702Z,87.976
2017-01-08T01:05:41.037Z,87.857
2017-01-08T01:08:40.154Z,87.785
2017-01-08T01:11:45.785Z,87.432
2017-01-08T01:14:51.356Z,87.413
2017-01-08T01:18:02.828Z,87.444
2017-01-08T01:21:07.853Z,87.423
2017-01-08T01:24:13.201Z,87.382
2017-01-08T01:27:18.349Z,87.666
2017-01-08T01:30:23.598Z,87.780
2017-01-08T01:33:28.763Z,87.784
2017-01-08T01:36:34.192Z,87.528
2017-01-08T01:39:39.353Z,87.657
2017-01-08T01:42:44.468Z,87.294
2017-01-08T01:45:49.823Z,87.949
2017-01-08T01:48:49.147Z,88.392
2017-01-08T01:58:05.634Z,88.601
2017-01-08T02:01:17.201Z,88.806
2017-01-08T02:04:22.443Z,88.833
2017-01-08T02:07:21.706Z,88.850
2017-01-08T02:10:33.302Z,89.094
2017-01-08T02:13:32.509Z,88.682
2017-01-08T02:16:44.169Z,88.495
2017-01-08T02:19:49.426Z,88.603
2017-01-08T02:22:54.784Z,88.382
2017-01-08T02:25:59.960Z,88.197
2017-01-08T02:29:05.172Z,88.285
2017-01-08T02:32:10.342Z,88.260
2017-01-08T02:35:15.696Z,88.041
2017-01-08T02:38:20.930Z,87.941
2017-01-08T02:41:26.209Z,87.969
2017-01-08T02:44:31.468Z,87.971
2017-01-08T02:47:36.683Z,88.025
2017-01-08T02:50:41.812Z,88.108
2017-01-08T02:53:47.038Z,88.318
2017-01-08T02:56:46.249Z,88.074
2017-01-08T03:02:56.949Z,88.072
2017-01-08T03:06:08.215Z,88.146
2017-01-08T03:12:18.889Z,88.519
2017-01-08T03:15:18.171Z,88.332
2017-01-08T03:18:29.837Z,88.295
2017-01-08T03:21:35.000Z,88.328
2017-01-08T03:24:34.286Z,88.280
2017-01-08T03:27:45.894Z,88.470
2017-01-08T03:30:51.079Z,88.605
2017-01-08T03:33:56.232Z,88.414
2017-01-08T03:37:01.311Z,88.587
2017-01-08T03:40:00.508Z,88.292
2017-01-08T03:43:06.024Z,88.340
2017-01-08T03:46:17.476Z,88.421
2017-01-08T03:49:22.700Z,88.292
2017-01-08T03:52:21.785Z,88.244
2017-01-08T03:55:33.319Z,88.350
2017-01-08T03:58:38.363Z,88.090
2017-01-08T04:01:37.661Z,88.246
2017-01-08T04:04:49.164Z,88.003
2017-01-08T04:07:54.297Z,87.995
2017-01-08T04:14:04.636Z,88.147
2017-01-08T04:17:04.027Z,88.009
2017-01-08T04:20:09.742Z,88.027
2017-01-08T04:23:21.402Z,88.136
2017-01-08T04:26:26.718Z,88.044
2017-01-08T04:29:32.015Z,87.898
2017-01-08T04:32:31.224Z,88.127
2017-01-08T04:35:42.793Z,88.160
2017-01-08T04:41:46.873Z,88.433
2017-01-08T04:44:58.287Z,88.707
2017-01-08T04:47:57.511Z,88.686
2017-01-08T04:51:03.131Z,88.651
2017-01-08T04:54:14.626Z,87.822
2017-01-08T04:57:13.806Z,87.584
2017-01-08T05:00:25.206Z,87.450
2017-01-08T05:03:30.459Z,87.316
2017-01-08T05:09:41.166Z,87.457
2017-01-08T05:12:46.444Z,87.466
2017-01-08T05:15:45.609Z,87.392
2017-01-08T05:18:57.056Z,87.534
2017-01-08T05:22:02.288Z,87.545
2017-01-08T05:25:07.441Z,87.563
2017-01-08T05:28:06.742Z,87.585
2017-01-08T05:31:12.225Z,87.722
2017-01-08T05:34:23.791Z,87.863
2017-01-08T05:37:29.001Z,87.914
2017-01-08T05:40:28.181Z,87.773
2017-01-08T05:43:33.675Z,87.637
2017-01-08T05:46:39.173Z,87.542
2017-01-08T05:49:50.694Z,87.272
2017-01-08T05:52:55.845Z,87.391
2017-01-08T05:56:00.946Z,87.367
2017-01-08T05:59:06.075Z,86.934
2017-01-08T06:02:05.287Z,86.901
2017-01-08T06:05:16.699Z,86.781
2017-01-08T06:08:21.942Z,86.837
2017-01-08T06:11:21.196Z,86.777
2017-01-08T06:14:32.530Z,86.711
2017-01-08T06:17:31.773Z,86.819
2017-01-08T06:20:37.361Z,86.587
2017-01-08T06:23:42.823Z,86.646
2017-01-08T06:26:54.277Z,86.835
2017-01-08T06:29:59.412Z,86.965
2017-01-08T06:33:04.509Z,87.038
2017-01-08T06:36:09.594Z,87.231
2017-01-08T06:39:14.687Z,86.708
2017-01-08T06:42:13.966Z,86.559
2017-01-08T06:45:25.315Z,86.708
2017-01-08T06:48:30.408Z,86.610
2017-01-08T06:51:35.602Z,86.517
2017-01-08T06:54:40.683Z,86.454
2017-01-08T07:00:50.650Z,86.682
2017-01-08T07:03:55.712Z,86.769
2017-01-08T07:07:00.923Z,86.743
2017-01-08T07:10:06.133Z,86.797
2017-01-08T07:13:11.366Z,86.732
2017-01-08T07:16:10.435Z,86.637
2017-01-08T07:19:21.961Z,86.731
2017-01-08T07:22:27.218Z,86.646
2017-01-08T07:25:26.499Z,86.276
2017-01-08T07:28:37.963Z,85.879
2017-01-08T07:31:37.140Z,85.966
2017-01-08T07:34:48.606Z,85.971
2017-01-08T07:37:54.021Z,85.962
2017-01-08T07:40:59.286Z,86.024
2017-01-08T07:44:04.074Z,86.080
2017-01-08T07:47:03.316Z,86.053
2017-01-08T07:50:08.592Z,85.650
2017-01-08T07:53:14.142Z,85.658
2017-01-08T07:56:25.572Z,85.659
2017-01-08T07:59:31.027Z,85.514
2017-01-08T08:02:36.287Z,85.192
2017-01-08T08:05:41.616Z,85.488
2017-01-08T08:08:43.819Z,85.260
2017-01-08T08:11:48.876Z,85.608
2017-01-08T08:14:53.779Z,85.659
2017-01-08T08:17:58.615Z,85.851
2017-01-08T08:20:57.815Z,85.823
2017-01-08T08:24:08.575Z,85.587
2017-01-08T08:27:13.818Z,85.678
2017-01-08T09:09:03.057Z,86.670
2017-01-08T09:12:00.443Z,86.095
2017-01-08T09:15:06.088Z,86.328
2017-01-08T09:18:11.341Z,86.267
2017-01-08T09:21:16.943Z,85.608
2017-01-08T09:24:28.396Z,85.412
2017-01-08T09:27:33.686Z,85.034
2017-01-08T09:30:38.725Z,84.504
2017-01-08T09:33:43.808Z,84.585
2017-01-08T09:36:42.936Z,84.784
2017-01-08T09:39:54.455Z,84.303
2017-01-08T09:42:59.737Z,84.309
2017-01-08T09:46:04.802Z,84.682
2017-01-08T09:49:09.767Z,84.468
2017-01-08T09:52:15.008Z,83.598
2017-01-08T09:55:14.157Z,84.134
2017-01-08T09:58:19.677Z,84.776
2017-01-08T10:01:31.025Z,84.596
2017-01-08T10:04:36.317Z,84.052
2017-01-08T10:07:41.600Z,84.027
2017-01-08T10:10:40.811Z,84.054
2017-01-08T10:13:46.321Z,83.987
2017-01-08T10:16:57.827Z,83.823
2017-01-08T10:19:57.039Z,84.051
2017-01-08T10:23:08.594Z,83.833
2017-01-08T10:26:13.743Z,83.696
2017-01-08T10:29:13.004Z,83.524
2017-01-08T10:35:29.567Z,83.552
2017-01-08T10:38:34.687Z,83.116
2017-01-08T10:41:39.930Z,83.087
2017-01-08T10:44:45.199Z,83.080
2017-01-08T10:47:44.294Z,83.443
2017-01-08T10:50:55.829Z,82.035
2017-01-08T10:54:00.717Z,82.909
2017-01-08T10:56:59.872Z,82.868
2017-01-08T11:00:11.367Z,83.025
2017-01-08T11:03:16.489Z,83.119
2017-01-08T11:06:15.590Z,83.238
2017-01-08T11:09:26.968Z,83.340
2017-01-08T11:12:32.139Z,82.547
2017-01-08T11:15:38.186Z,82.588
2017-01-08T11:18:43.351Z,82.344
2017-01-08T11:21:48.529Z,81.753
2017-01-08T11:24:53.849Z,82.416
2017-01-08T11:27:58.661Z,81.702
2017-01-08T11:31:03.717Z,80.910
2017-01-08T11:34:08.783Z,80.853
2017-01-08T11:37:08.016Z,81.199
2017-01-08T11:40:13.762Z,81.384
2017-01-08T11:43:25.225Z,81.601
2017-01-08T11:46:24.426Z,81.303
2017-01-08T11:49:35.987Z,81.291
2017-01-08T11:52:35.375Z,81.371
2017-01-08T11:55:46.950Z,81.027
2017-01-08T11:58:52.102Z,80.263
2017-01-08T12:01:51.526Z,81.062
2017-01-08T12:04:57.033Z,81.575
2017-01-08T12:08:08.439Z,81.147
2017-01-08T12:11:13.514Z,81.164
2017-01-08T12:14:18.704Z,80.798
2017-01-08T12:17:23.552Z,81.427
2017-01-08T12:20:28.900Z,80.986
2017-01-08T12:23:28.005Z,81.708
2017-01-08T12:26:39.652Z,81.921
2017-01-08T12:29:44.881Z,82.176
2017-01-08T12:32:49.850Z,82.152
2017-01-08T12:35:55.037Z,82.568
2017-01-08T12:42:05.487Z,82.937
2017-01-08T12:45:04.798Z,83.088
2017-01-08T12:48:16.382Z,83.501
2017-01-08T12:51:21.545Z,83.512
2017-01-08T12:54:26.658Z,83.527
2017-01-08T12:57:31.945Z,83.444
2017-01-08T13:00:36.976Z,83.252
2017-01-08T13:03:36.260Z,83.148
2017-01-08T13:06:41.791Z,83.086
2017-01-08T13:09:53.339Z,83.035
2017-01-08T13:12:52.624Z,83.241
2017-01-08T13:16:04.195Z,82.538
2017-01-08T13:19:09.534Z,82.808
2017-01-08T13:22:14.864Z,82.998
2017-01-08T13:25:20.123Z,83.242
2017-01-08T13:28:19.253Z,83.472
2017-01-08T13:31:30.855Z,83.474
2017-01-08T13:34:30.044Z,83.265
2017-01-08T13:37:41.708Z,83.340
2017-01-08T13:40:40.955Z,83.474
2017-01-08T13:43:52.593Z,83.665
2017-01-08T13:46:50.109Z,83.333
2017-01-08T13:53:08.377Z,83.581
2017-01-08T13:56:07.656Z,83.177
2017-01-08T13:59:18.496Z,83.615
2017-01-08T14:02:23.639Z,83.326
2017-01-08T14:05:22.865Z,83.741
2017-01-08T14:08:34.547Z,83.670
2017-01-08T14:11:39.753Z,83.708
2017-01-08T14:14:38.650Z,84.211
2017-01-08T14:17:44.212Z,84.199
2017-01-08T14:20:55.774Z,83.791
2017-01-08T14:24:00.762Z,83.479
2017-01-08T14:27:05.973Z,83.512
2017-01-08T14:30:05.141Z,83.270
2017-01-08T14:35:14.655Z,84.391
2017-01-08T14:38:16.000Z,81.312
2017-01-08T14:41:20.176Z,82.194
2017-01-08T14:44:17.484Z,83.019
2017-01-08T14:47:29.920Z,84.083
2017-01-08T14:50:34.714Z,85.068
2017-01-08T14:53:39.505Z,85.937
2017-01-08T14:56:44.129Z,86.339
2017-01-08T15:18:23.971Z,85.627
2017-01-08T15:24:23.975Z,84.053
2017-01-08T15:30:32.106Z,86.815
2017-01-08T15:42:49.113Z,89.435
2017-01-08T16:10:26.275Z,91.414
2017-01-08T16:16:35.170Z,91.285
2017-01-08T16:22:45.196Z,91.897
2017-01-08T16:31:57.914Z,91.706
2017-01-08T16:35:02.788Z,91.582
2017-01-08T16:44:16.472Z,92.096
2017-01-08T16:47:20.754Z,92.358
2017-01-08T16:50:17.409Z,92.618
2017-01-08T17:08:50.600Z,92.670
2017-01-08T17:18:04.397Z,92.194
2017-01-08T17:51:48.546Z,92.553
2017-01-08T17:54:52.784Z,92.721
2017-01-08T19:33:06.409Z,92.639
2017-01-08T20:09:55.625Z,92.955
2017-01-08T20:22:08.593Z,93.011
2017-01-08T20:37:29.507Z,92.828
2017-01-08T20:59:00.325Z,93.083
2017-01-08T21:05:08.138Z,93.013
2017-01-08T21:26:36.778Z,93.106
2017-01-08T21:29:41.703Z,93.156
2017-01-08T21:32:44.684Z,93.177
2017-01-08T21:35:45.176Z,93.021
2017-01-08T21:38:53.119Z,93.270
2017-01-08T21:57:19.565Z,92.945
2017-01-08T22:24:53.727Z,92.620
2017-01-08T23:59:58.590Z,93.970
